SVA904 EBLG-OERK
Flight info
| Callsign | SVA904 |
|---|---|
| Flight time | 5h 53m |
| Altitude | 31000 |
| Route | DCT LNO Z283 SOPOK Y863 ROPUV L607 UBIDU L984 RUDUS T109 HAREM T104 WLD M867 RADIZ DCT GIMIX DCT ALIVO DCT SIRMI DCT NERRA DCT VAKSU DCT PINDO/N0452F230 L607 PAXIS Y707 OBRAN/N0492F330 DCT FYM M872 WEJ J874 GAS G662 KUNEK DCT |
| Aircraft | B77L/H-SDE1E2E3FGHIJ2J3J4J5M1RWXY/LB1D1 |
Departure
| Time | 2026-05-08 12:55 |
|---|---|
| Airport | Liège Airport (EBLG) |
Arrival
| Time | 2026-05-08 18:49 |
|---|---|
| Airport | King Khalid International Airport (OERK) |
| Time | Latitude | Longitude | Altitude | Speed | Heading |
|---|---|---|---|---|---|
| 2026-05-08 11:57 | 50.63738 | 5.43326 | 643 ft | 0 kts | 315° |
| 2026-05-08 12:43 | 50.63727 | 5.43342 | 647 ft | 4 kts | 315° |
| 2026-05-08 12:43 | 50.63708 | 5.43372 | 645 ft | 4 kts | 315° |
| 2026-05-08 12:44 | 50.63692 | 5.43398 | 646 ft | 4 kts | 304° |
| 2026-05-08 12:44 | 50.63683 | 5.43435 | 647 ft | 4 kts | 265° |
| 2026-05-08 12:44 | 50.63691 | 5.43472 | 650 ft | 4 kts | 229° |
| 2026-05-08 12:44 | 50.63710 | 5.43500 | 648 ft | 2 kts | 224° |
| 2026-05-08 12:45 | 50.63711 | 5.43502 | 649 ft | 0 kts | 225° |
| 2026-05-08 12:49 | 50.63706 | 5.43495 | 650 ft | 4 kts | 225° |
| 2026-05-08 12:49 | 50.63663 | 5.43427 | 646 ft | 11 kts | 225° |
| 2026-05-08 12:49 | 50.63610 | 5.43345 | 645 ft | 11 kts | 225° |
| 2026-05-08 12:49 | 50.63575 | 5.43290 | 647 ft | 11 kts | 225° |
| 2026-05-08 12:50 | 50.63505 | 5.43177 | 651 ft | 11 kts | 226° |
| 2026-05-08 12:50 | 50.63470 | 5.43122 | 650 ft | 11 kts | 225° |
| 2026-05-08 12:50 | 50.63418 | 5.43038 | 643 ft | 11 kts | 225° |
| 2026-05-08 12:50 | 50.63358 | 5.42970 | 645 ft | 11 kts | 205° |
| 2026-05-08 12:51 | 50.63291 | 5.42918 | 648 ft | 11 kts | 204° |
| 2026-05-08 12:51 | 50.63149 | 5.42924 | 648 ft | 11 kts | 159° |
| 2026-05-08 12:51 | 50.63077 | 5.42949 | 649 ft | 11 kts | 172° |
| 2026-05-08 12:52 | 50.63022 | 5.42966 | 660 ft | 5 kts | 160° |
| 2026-05-08 12:52 | 50.63020 | 5.42967 | 660 ft | 0 kts | 159° |
| 2026-05-08 12:53 | 50.63022 | 5.42966 | 660 ft | 0 kts | 159° |
| 2026-05-08 12:53 | 50.63021 | 5.42966 | 660 ft | 1 kts | 159° |
| 2026-05-08 12:53 | 50.62990 | 5.42988 | 661 ft | 9 kts | 154° |
| 2026-05-08 12:53 | 50.62933 | 5.43073 | 666 ft | 12 kts | 124° |
| 2026-05-08 12:54 | 50.62963 | 5.43178 | 663 ft | 12 kts | 45° |
| 2026-05-08 12:54 | 50.63057 | 5.43327 | 657 ft | 33 kts | 45° |
| 2026-05-08 12:54 | 50.63385 | 5.43846 | 645 ft | 103 kts | 45° |
| 2026-05-08 12:54 | 50.64037 | 5.44876 | 617 ft | 165 kts | 44° |
| 2026-05-08 12:55 | 50.64952 | 5.46272 | 838 ft | 188 kts | 44° |
| 2026-05-08 12:55 | 50.65865 | 5.47667 | 1651 ft | 181 kts | 46° |
| 2026-05-08 12:55 | 50.66746 | 5.49122 | 2236 ft | 186 kts | 49° |
| 2026-05-08 12:55 | 50.67597 | 5.50656 | 2691 ft | 186 kts | 51° |
| 2026-05-08 12:56 | 50.68432 | 5.52256 | 3047 ft | 191 kts | 51° |
| 2026-05-08 12:56 | 50.69407 | 5.53833 | 3173 ft | 212 kts | 45° |
| 2026-05-08 12:56 | 50.70511 | 5.55455 | 3569 ft | 219 kts | 45° |
| 2026-05-08 12:56 | 50.71636 | 5.57077 | 4004 ft | 224 kts | 36° |
| 2026-05-08 12:57 | 50.73074 | 5.57903 | 4270 ft | 233 kts | 0° |
| 2026-05-08 12:57 | 50.74620 | 5.57308 | 4688 ft | 237 kts | 327° |
| 2026-05-08 12:57 | 50.75714 | 5.55382 | 5167 ft | 236 kts | 290° |
| 2026-05-08 12:57 | 50.76166 | 5.52926 | 5518 ft | 240 kts | 284° |
| 2026-05-08 12:58 | 50.76606 | 5.50341 | 5996 ft | 246 kts | 285° |
| 2026-05-08 12:58 | 50.77063 | 5.47720 | 6561 ft | 248 kts | 284° |
| 2026-05-08 12:58 | 50.77519 | 5.45107 | 7170 ft | 246 kts | 284° |
| 2026-05-08 12:58 | 50.77951 | 5.42613 | 7684 ft | 249 kts | 283° |
| 2026-05-08 12:59 | 50.78360 | 5.39844 | 7879 ft | 267 kts | 282° |
| 2026-05-08 12:59 | 50.78765 | 5.36923 | 8310 ft | 275 kts | 281° |
| 2026-05-08 12:59 | 50.79181 | 5.33937 | 8868 ft | 280 kts | 281° |
| 2026-05-08 12:59 | 50.79606 | 5.30924 | 9495 ft | 283 kts | 281° |
| 2026-05-08 13:00 | 50.80027 | 5.27944 | 10085 ft | 286 kts | 281° |
| 2026-05-08 13:00 | 50.80454 | 5.24922 | 10517 ft | 295 kts | 282° |
| 2026-05-08 13:00 | 50.80682 | 5.21638 | 10600 ft | 309 kts | 261° |
| 2026-05-08 13:00 | 50.80211 | 5.19157 | 10713 ft | 321 kts | 240° |
| 2026-05-08 13:01 | 50.78806 | 5.16574 | 10859 ft | 338 kts | 215° |
| 2026-05-08 13:01 | 50.76591 | 5.15127 | 11060 ft | 357 kts | 187° |
| 2026-05-08 13:01 | 50.74086 | 5.15268 | 11409 ft | 365 kts | 173° |
| 2026-05-08 13:01 | 50.71768 | 5.15827 | 11775 ft | 370 kts | 167° |
| 2026-05-08 13:02 | 50.69564 | 5.17346 | 12156 ft | 381 kts | 144° |
| 2026-05-08 13:02 | 50.67803 | 5.20478 | 12929 ft | 386 kts | 120° |
| 2026-05-08 13:02 | 50.66549 | 5.24202 | 13528 ft | 387 kts | 120° |
| 2026-05-08 13:02 | 50.65198 | 5.27779 | 14092 ft | 393 kts | 123° |
| 2026-05-08 13:03 | 50.63853 | 5.31148 | 14723 ft | 395 kts | 123° |
| 2026-05-08 13:03 | 50.62340 | 5.34916 | 15455 ft | 397 kts | 123° |
| 2026-05-08 13:03 | 50.61025 | 5.38216 | 16078 ft | 399 kts | 123° |
| 2026-05-08 13:03 | 50.59549 | 5.41948 | 16706 ft | 403 kts | 123° |
| 2026-05-08 13:04 | 50.58073 | 5.45691 | 17330 ft | 407 kts | 123° |
| 2026-05-08 13:04 | 50.56578 | 5.49485 | 17952 ft | 408 kts | 122° |
| 2026-05-08 13:04 | 50.55432 | 5.53578 | 18324 ft | 417 kts | 103° |
| 2026-05-08 13:04 | 50.55304 | 5.58169 | 18768 ft | 425 kts | 84° |
| 2026-05-08 13:05 | 50.55964 | 5.62250 | 19269 ft | 427 kts | 69° |
| 2026-05-08 13:05 | 50.57008 | 5.66595 | 19572 ft | 426 kts | 78° |
| 2026-05-08 13:05 | 50.57108 | 5.71257 | 19835 ft | 430 kts | 103° |
| 2026-05-08 13:05 | 50.56041 | 5.75604 | 20338 ft | 427 kts | 125° |
| 2026-05-08 13:06 | 50.54052 | 5.78955 | 20868 ft | 424 kts | 147° |
| 2026-05-08 13:06 | 50.51793 | 5.80744 | 21284 ft | 423 kts | 166° |
| 2026-05-08 13:06 | 50.48880 | 5.81250 | 21753 ft | 422 kts | 187° |
| 2026-05-08 13:06 | 50.46062 | 5.80005 | 22218 ft | 423 kts | 208° |
| 2026-05-08 13:07 | 50.43560 | 5.77598 | 22766 ft | 424 kts | 214° |
| 2026-05-08 13:07 | 50.41008 | 5.75295 | 23063 ft | 426 kts | 201° |
| 2026-05-08 13:07 | 50.38067 | 5.74481 | 23346 ft | 436 kts | 179° |
| 2026-05-08 13:07 | 50.35045 | 5.75034 | 23817 ft | 440 kts | 172° |
| 2026-05-08 13:08 | 50.32063 | 5.75869 | 24253 ft | 438 kts | 169° |
| 2026-05-08 13:08 | 50.29171 | 5.77467 | 24509 ft | 448 kts | 153° |
| 2026-05-08 13:08 | 50.26644 | 5.80342 | 24887 ft | 455 kts | 137° |
| 2026-05-08 13:08 | 50.24571 | 5.84098 | 25373 ft | 458 kts | 126° |
| 2026-05-08 13:09 | 50.23149 | 5.88561 | 25769 ft | 464 kts | 108° |
| 2026-05-08 13:09 | 50.22372 | 5.93437 | 26175 ft | 467 kts | 104° |
| 2026-05-08 13:09 | 50.21700 | 5.98189 | 26516 ft | 471 kts | 104° |
| 2026-05-08 13:09 | 50.20947 | 6.03128 | 26853 ft | 474 kts | 106° |
| 2026-05-08 13:10 | 50.20123 | 6.08087 | 27226 ft | 476 kts | 107° |
| 2026-05-08 13:10 | 50.19297 | 6.13002 | 27609 ft | 479 kts | 104° |
| 2026-05-08 13:10 | 50.18735 | 6.18108 | 27965 ft | 483 kts | 97° |
| 2026-05-08 13:10 | 50.18534 | 6.23349 | 28348 ft | 486 kts | 92° |
| 2026-05-08 13:11 | 50.18676 | 6.28644 | 28700 ft | 490 kts | 85° |
| 2026-05-08 13:11 | 50.19045 | 6.33919 | 29039 ft | 493 kts | 85° |
| 2026-05-08 13:11 | 50.19410 | 6.39075 | 29345 ft | 495 kts | 85° |
| 2026-05-08 13:11 | 50.19784 | 6.44601 | 29648 ft | 498 kts | 85° |
| 2026-05-08 13:12 | 50.20129 | 6.49983 | 29925 ft | 500 kts | 85° |
| 2026-05-08 13:12 | 50.20461 | 6.55377 | 30272 ft | 500 kts | 86° |
| 2026-05-08 13:12 | 50.20790 | 6.60788 | 30647 ft | 499 kts | 86° |
| 2026-05-08 13:12 | 50.21111 | 6.66130 | 30999 ft | 499 kts | 86° |
| 2026-05-08 13:13 | 50.21749 | 6.76994 | 31056 ft | 501 kts | 86° |
| 2026-05-08 13:13 | 50.22127 | 6.87518 | 31096 ft | 496 kts | 94° |
| 2026-05-08 13:14 | 50.21555 | 6.98142 | 31106 ft | 495 kts | 97° |
| 2026-05-08 13:14 | 50.20947 | 7.08400 | 31107 ft | 496 kts | 96° |
| 2026-05-08 13:15 | 50.20379 | 7.18793 | 31097 ft | 497 kts | 96° |
| 2026-05-08 13:15 | 50.19793 | 7.29052 | 31107 ft | 496 kts | 99° |
| 2026-05-08 13:16 | 50.18081 | 7.39256 | 31105 ft | 493 kts | 113° |
| 2026-05-08 13:16 | 50.15085 | 7.48639 | 31111 ft | 490 kts | 121° |
| 2026-05-08 13:17 | 50.11796 | 7.57889 | 31106 ft | 491 kts | 121° |
| 2026-05-08 13:17 | 50.08549 | 7.67083 | 31100 ft | 491 kts | 121° |
| 2026-05-08 13:18 | 50.05446 | 7.75927 | 31109 ft | 491 kts | 121° |
| 2026-05-08 13:18 | 50.02336 | 7.84794 | 31099 ft | 492 kts | 121° |
| 2026-05-08 13:19 | 49.99192 | 7.93728 | 31110 ft | 492 kts | 121° |
| 2026-05-08 13:19 | 49.95972 | 8.02840 | 31103 ft | 492 kts | 121° |
| 2026-05-08 13:20 | 49.92801 | 8.11781 | 31114 ft | 492 kts | 121° |
| 2026-05-08 13:20 | 49.89518 | 8.21001 | 31086 ft | 492 kts | 121° |
| 2026-05-08 13:21 | 49.86197 | 8.30335 | 31107 ft | 500 kts | 121° |
| 2026-05-08 13:21 | 49.83021 | 8.39223 | 31105 ft | 506 kts | 121° |
| 2026-05-08 13:22 | 49.79723 | 8.48396 | 31101 ft | 507 kts | 121° |
| 2026-05-08 13:22 | 49.76275 | 8.57944 | 31098 ft | 508 kts | 121° |
| 2026-05-08 13:23 | 49.73079 | 8.66758 | 31097 ft | 507 kts | 121° |
| 2026-05-08 13:23 | 49.69811 | 8.75466 | 31098 ft | 505 kts | 126° |
| 2026-05-08 13:24 | 49.65530 | 8.84005 | 31107 ft | 502 kts | 131° |
| 2026-05-08 13:24 | 49.61761 | 8.91210 | 31089 ft | 502 kts | 131° |
| 2026-05-08 13:25 | 49.57419 | 8.99580 | 31090 ft | 501 kts | 130° |
| 2026-05-08 13:25 | 49.53080 | 9.07994 | 31090 ft | 500 kts | 130° |
| 2026-05-08 13:26 | 49.48836 | 9.16220 | 31092 ft | 500 kts | 130° |
| 2026-05-08 13:26 | 49.44513 | 9.24569 | 31091 ft | 500 kts | 130° |
| 2026-05-08 13:27 | 49.40221 | 9.32831 | 31089 ft | 500 kts | 130° |
| 2026-05-08 13:27 | 49.35872 | 9.41171 | 31076 ft | 500 kts | 131° |
| 2026-05-08 13:28 | 49.31611 | 9.49317 | 31082 ft | 501 kts | 131° |
| 2026-05-08 13:28 | 49.27337 | 9.57464 | 31096 ft | 501 kts | 131° |
| 2026-05-08 13:29 | 49.22973 | 9.65757 | 31097 ft | 501 kts | 131° |
| 2026-05-08 13:29 | 49.18713 | 9.73830 | 31103 ft | 501 kts | 131° |
| 2026-05-08 13:30 | 49.14415 | 9.81948 | 31098 ft | 502 kts | 131° |
| 2026-05-08 13:30 | 49.10050 | 9.90168 | 31104 ft | 502 kts | 131° |
| 2026-05-08 13:31 | 49.05686 | 9.98359 | 31105 ft | 502 kts | 131° |
| 2026-05-08 13:31 | 49.01278 | 10.06606 | 31094 ft | 503 kts | 131° |
| 2026-05-08 13:32 | 48.96879 | 10.14812 | 31093 ft | 503 kts | 131° |
| 2026-05-08 13:32 | 48.92580 | 10.22809 | 31110 ft | 503 kts | 131° |
| 2026-05-08 13:33 | 48.88342 | 10.30668 | 31112 ft | 503 kts | 131° |
| 2026-05-08 13:33 | 48.84051 | 10.38602 | 31109 ft | 503 kts | 132° |
| 2026-05-08 13:34 | 48.79705 | 10.46612 | 31112 ft | 503 kts | 132° |
| 2026-05-08 13:34 | 48.75256 | 10.54788 | 31089 ft | 504 kts | 133° |
| 2026-05-08 13:35 | 48.70869 | 10.62824 | 31113 ft | 505 kts | 133° |
| 2026-05-08 13:35 | 48.67188 | 10.69548 | 31099 ft | 506 kts | 133° |
| 2026-05-08 13:36 | 48.62994 | 10.77191 | 31095 ft | 507 kts | 134° |
| 2026-05-08 13:36 | 48.58542 | 10.85280 | 31083 ft | 507 kts | 134° |
| 2026-05-08 13:37 | 48.54168 | 10.93206 | 31066 ft | 508 kts | 135° |
| 2026-05-08 13:37 | 48.50125 | 11.00505 | 31060 ft | 510 kts | 135° |
| 2026-05-08 13:38 | 48.45537 | 11.08765 | 31077 ft | 511 kts | 135° |
| 2026-05-08 13:38 | 48.41360 | 11.16266 | 31076 ft | 513 kts | 135° |
| 2026-05-08 13:39 | 48.37061 | 11.23962 | 31082 ft | 513 kts | 135° |
| 2026-05-08 13:39 | 48.32456 | 11.32185 | 31077 ft | 513 kts | 135° |
| 2026-05-08 13:40 | 48.28491 | 11.39244 | 31086 ft | 512 kts | 135° |
| 2026-05-08 13:40 | 48.25219 | 11.45053 | 31056 ft | 512 kts | 135° |
| 2026-05-08 13:41 | 48.20741 | 11.52987 | 31100 ft | 510 kts | 136° |
| 2026-05-08 13:41 | 48.16460 | 11.60549 | 31035 ft | 510 kts | 136° |
| 2026-05-08 13:42 | 48.12212 | 11.68030 | 31066 ft | 509 kts | 136° |
| 2026-05-08 13:42 | 48.07663 | 11.76016 | 31061 ft | 509 kts | 136° |
| 2026-05-08 13:43 | 48.03893 | 11.82616 | 31044 ft | 509 kts | 136° |
| 2026-05-08 13:43 | 47.99660 | 11.90010 | 31055 ft | 508 kts | 136° |
| 2026-05-08 13:44 | 47.95460 | 11.97327 | 31035 ft | 509 kts | 136° |
| 2026-05-08 13:44 | 47.91619 | 12.04000 | 31047 ft | 509 kts | 136° |
| 2026-05-08 13:45 | 47.88691 | 12.09075 | 31053 ft | 509 kts | 136° |
| 2026-05-08 13:45 | 47.85041 | 12.15387 | 31061 ft | 510 kts | 136° |
| 2026-05-08 13:46 | 47.80837 | 12.22643 | 31053 ft | 511 kts | 136° |
| 2026-05-08 13:46 | 47.76546 | 12.30029 | 31035 ft | 511 kts | 136° |
| 2026-05-08 13:47 | 47.72736 | 12.36572 | 31047 ft | 511 kts | 137° |
| 2026-05-08 13:47 | 47.69007 | 12.42960 | 31063 ft | 510 kts | 136° |
| 2026-05-08 13:48 | 47.64752 | 12.50222 | 31053 ft | 509 kts | 137° |
| 2026-05-08 13:48 | 47.61434 | 12.55157 | 31051 ft | 502 kts | 145° |
| 2026-05-08 13:49 | 47.57706 | 12.59416 | 31047 ft | 497 kts | 150° |
| 2026-05-08 13:49 | 47.54988 | 12.62317 | 31034 ft | 496 kts | 150° |
| 2026-05-08 13:50 | 47.50522 | 12.67092 | 31023 ft | 496 kts | 150° |
| 2026-05-08 13:50 | 47.45618 | 12.72378 | 31042 ft | 495 kts | 149° |
| 2026-05-08 13:51 | 47.43905 | 12.74230 | 31033 ft | 495 kts | 149° |
| 2026-05-08 13:51 | 47.38813 | 12.79739 | 31036 ft | 493 kts | 149° |
| 2026-05-08 13:52 | 47.36296 | 12.82461 | 31062 ft | 492 kts | 149° |
| 2026-05-08 13:52 | 47.35932 | 12.82853 | 31063 ft | 492 kts | 149° |
| 2026-05-08 13:53 | 47.33361 | 12.85627 | 31025 ft | 493 kts | 150° |
| 2026-05-08 13:53 | 47.27816 | 12.91600 | 31026 ft | 493 kts | 149° |
| 2026-05-08 13:54 | 47.24458 | 12.95205 | 31072 ft | 491 kts | 149° |
| 2026-05-08 13:54 | 47.19361 | 13.00680 | 31068 ft | 492 kts | 149° |
| 2026-05-08 13:55 | 47.16201 | 13.04062 | 31148 ft | 491 kts | 149° |
| 2026-05-08 13:56 | 47.10562 | 13.10084 | 31108 ft | 494 kts | 149° |
| 2026-05-08 13:56 | 47.05904 | 13.15046 | 31089 ft | 495 kts | 149° |
| 2026-05-08 13:57 | 47.01857 | 13.19348 | 31064 ft | 495 kts | 149° |
| 2026-05-08 13:57 | 46.99243 | 13.22123 | 31139 ft | 492 kts | 149° |
| 2026-05-08 13:58 | 46.95279 | 13.26328 | 31059 ft | 495 kts | 149° |
| 2026-05-08 13:58 | 46.91532 | 13.30293 | 31053 ft | 494 kts | 149° |
| 2026-05-08 13:59 | 46.86858 | 13.35230 | 31046 ft | 495 kts | 149° |
| 2026-05-08 13:59 | 46.82664 | 13.39650 | 31034 ft | 494 kts | 149° |
| 2026-05-08 14:00 | 46.78124 | 13.44428 | 31038 ft | 493 kts | 149° |
| 2026-05-08 14:00 | 46.74057 | 13.48695 | 31025 ft | 493 kts | 149° |
| 2026-05-08 14:01 | 46.70263 | 13.52671 | 31031 ft | 492 kts | 149° |
| 2026-05-08 14:01 | 46.65561 | 13.57586 | 31118 ft | 490 kts | 149° |
| 2026-05-08 14:02 | 46.62045 | 13.61253 | 31013 ft | 493 kts | 149° |
| 2026-05-08 14:02 | 46.56450 | 13.67083 | 31047 ft | 495 kts | 149° |
| 2026-05-08 14:03 | 46.51784 | 13.71934 | 31057 ft | 496 kts | 149° |
| 2026-05-08 14:03 | 46.48204 | 13.75666 | 31057 ft | 497 kts | 149° |
| 2026-05-08 14:04 | 46.46291 | 13.77666 | 31059 ft | 497 kts | 149° |
| 2026-05-08 14:04 | 46.40670 | 13.83541 | 31046 ft | 498 kts | 149° |
| 2026-05-08 14:05 | 46.35731 | 13.88689 | 31051 ft | 497 kts | 149° |
| 2026-05-08 14:05 | 46.31174 | 13.93429 | 31057 ft | 496 kts | 149° |
| 2026-05-08 14:06 | 46.27734 | 13.97001 | 31052 ft | 495 kts | 148° |
| 2026-05-08 14:06 | 46.22505 | 14.02419 | 31045 ft | 493 kts | 149° |
| 2026-05-08 14:07 | 46.17300 | 14.07799 | 31022 ft | 492 kts | 149° |
| 2026-05-08 14:07 | 46.12598 | 14.12643 | 31035 ft | 493 kts | 149° |
| 2026-05-08 14:08 | 46.07105 | 14.18290 | 31030 ft | 493 kts | 149° |
| 2026-05-08 14:08 | 46.01613 | 14.23922 | 31035 ft | 494 kts | 149° |
| 2026-05-08 14:09 | 45.96029 | 14.29638 | 31038 ft | 494 kts | 149° |
| 2026-05-08 14:09 | 45.91009 | 14.34763 | 31036 ft | 495 kts | 148° |
| 2026-05-08 14:10 | 45.85386 | 14.40490 | 31042 ft | 495 kts | 149° |
| 2026-05-08 14:10 | 45.79831 | 14.46342 | 31038 ft | 497 kts | 146° |
| 2026-05-08 14:11 | 45.75551 | 14.51329 | 31038 ft | 498 kts | 144° |
| 2026-05-08 14:11 | 45.70242 | 14.57639 | 31041 ft | 498 kts | 144° |
| 2026-05-08 14:12 | 45.64878 | 14.63941 | 31037 ft | 498 kts | 145° |
| 2026-05-08 14:12 | 45.60625 | 14.68879 | 31030 ft | 498 kts | 145° |
| 2026-05-08 14:13 | 45.54642 | 14.75786 | 31034 ft | 500 kts | 145° |
| 2026-05-08 14:13 | 45.49246 | 14.81995 | 31036 ft | 501 kts | 145° |
| 2026-05-08 14:14 | 45.43820 | 14.88228 | 31032 ft | 501 kts | 145° |
| 2026-05-08 14:14 | 45.39348 | 14.93352 | 31027 ft | 501 kts | 145° |
| 2026-05-08 14:15 | 45.33922 | 14.99559 | 31035 ft | 500 kts | 145° |
| 2026-05-08 14:15 | 45.28531 | 15.05712 | 31046 ft | 500 kts | 145° |
| 2026-05-08 14:16 | 45.23106 | 15.11885 | 31046 ft | 500 kts | 145° |
| 2026-05-08 14:16 | 45.18520 | 15.17089 | 31046 ft | 500 kts | 145° |
| 2026-05-08 14:17 | 45.13086 | 15.23243 | 31032 ft | 500 kts | 145° |
| 2026-05-08 14:17 | 45.07652 | 15.29383 | 31028 ft | 500 kts | 145° |
| 2026-05-08 14:18 | 45.02216 | 15.35508 | 31037 ft | 499 kts | 145° |
| 2026-05-08 14:18 | 44.96782 | 15.41618 | 31038 ft | 500 kts | 145° |
| 2026-05-08 14:19 | 44.91333 | 15.47728 | 31030 ft | 500 kts | 145° |
| 2026-05-08 14:19 | 44.86934 | 15.52650 | 31029 ft | 500 kts | 145° |
| 2026-05-08 14:20 | 44.81475 | 15.58743 | 31030 ft | 500 kts | 145° |
| 2026-05-08 14:20 | 44.76016 | 15.64820 | 31035 ft | 500 kts | 145° |
| 2026-05-08 14:21 | 44.70607 | 15.70828 | 31027 ft | 500 kts | 144° |
| 2026-05-08 14:21 | 44.65131 | 15.76896 | 31025 ft | 500 kts | 144° |
| 2026-05-08 14:22 | 44.59704 | 15.82897 | 31031 ft | 500 kts | 144° |
| 2026-05-08 14:22 | 44.54297 | 15.88858 | 31027 ft | 500 kts | 144° |
| 2026-05-08 14:23 | 44.48778 | 15.94927 | 31022 ft | 501 kts | 144° |
| 2026-05-08 14:23 | 44.43310 | 16.00927 | 31017 ft | 500 kts | 144° |
| 2026-05-08 14:24 | 44.37831 | 16.06924 | 31016 ft | 499 kts | 144° |
| 2026-05-08 14:24 | 44.33435 | 16.11725 | 31016 ft | 499 kts | 145° |
| 2026-05-08 14:25 | 44.27968 | 16.17685 | 31026 ft | 499 kts | 144° |
| 2026-05-08 14:25 | 44.23503 | 16.22538 | 31049 ft | 500 kts | 145° |
| 2026-05-08 14:26 | 44.18034 | 16.28472 | 31016 ft | 502 kts | 145° |
| 2026-05-08 14:26 | 44.12556 | 16.34402 | 31003 ft | 501 kts | 145° |
| 2026-05-08 14:27 | 44.07007 | 16.40392 | 31275 ft | 502 kts | 145° |
| 2026-05-08 14:27 | 44.04313 | 16.43295 | 31751 ft | 496 kts | 145° |
| 2026-05-08 14:27 | 44.01678 | 16.46134 | 32333 ft | 489 kts | 145° |
| 2026-05-08 14:27 | 43.98914 | 16.49106 | 32585 ft | 491 kts | 145° |
| 2026-05-08 14:28 | 43.96202 | 16.52015 | 32668 ft | 495 kts | 145° |
| 2026-05-08 14:28 | 43.93471 | 16.54941 | 32804 ft | 497 kts | 145° |
| 2026-05-08 14:28 | 43.90733 | 16.57873 | 32898 ft | 498 kts | 145° |
| 2026-05-08 14:29 | 43.85437 | 16.63538 | 33028 ft | 495 kts | 145° |
| 2026-05-08 14:29 | 43.79884 | 16.69465 | 33009 ft | 496 kts | 145° |
| 2026-05-08 14:30 | 43.74515 | 16.75180 | 32994 ft | 495 kts | 145° |
| 2026-05-08 14:30 | 43.69112 | 16.80918 | 33007 ft | 494 kts | 145° |
| 2026-05-08 14:31 | 43.63923 | 16.86416 | 33014 ft | 493 kts | 145° |
| 2026-05-08 14:31 | 43.58479 | 16.92170 | 33017 ft | 493 kts | 145° |
| 2026-05-08 14:32 | 43.50427 | 17.00658 | 33015 ft | 492 kts | 145° |
| 2026-05-08 14:32 | 43.45877 | 17.05440 | 33014 ft | 492 kts | 145° |
| 2026-05-08 14:33 | 43.40543 | 17.11038 | 33014 ft | 492 kts | 145° |
| 2026-05-08 14:33 | 43.35257 | 17.16570 | 33009 ft | 492 kts | 145° |
| 2026-05-08 14:34 | 43.30417 | 17.21628 | 33011 ft | 480 kts | 145° |
| 2026-05-08 14:34 | 43.26680 | 17.25523 | 33008 ft | 478 kts | 145° |
| 2026-05-08 14:35 | 43.21647 | 17.30758 | 33019 ft | 477 kts | 145° |
| 2026-05-08 14:35 | 43.16635 | 17.35962 | 33009 ft | 477 kts | 145° |
| 2026-05-08 14:36 | 43.11907 | 17.40861 | 33003 ft | 477 kts | 145° |
| 2026-05-08 14:36 | 43.06672 | 17.46275 | 33011 ft | 477 kts | 145° |
| 2026-05-08 14:37 | 43.01603 | 17.51505 | 33004 ft | 478 kts | 145° |
| 2026-05-08 14:37 | 42.96640 | 17.56615 | 33019 ft | 480 kts | 145° |
| 2026-05-08 14:38 | 42.91748 | 17.61642 | 33008 ft | 481 kts | 145° |
| 2026-05-08 14:38 | 42.86443 | 17.67081 | 33006 ft | 482 kts | 145° |
| 2026-05-08 14:39 | 42.81752 | 17.71884 | 33031 ft | 483 kts | 145° |
| 2026-05-08 14:39 | 42.77583 | 17.76141 | 33016 ft | 484 kts | 145° |
| 2026-05-08 14:40 | 42.72192 | 17.81638 | 33017 ft | 482 kts | 145° |
| 2026-05-08 14:40 | 42.67980 | 17.85923 | 32994 ft | 480 kts | 145° |
| 2026-05-08 14:41 | 42.62645 | 17.91341 | 33013 ft | 477 kts | 145° |
| 2026-05-08 14:41 | 42.58727 | 17.95310 | 33006 ft | 476 kts | 145° |
| 2026-05-08 14:42 | 42.53423 | 18.00676 | 33011 ft | 475 kts | 145° |
| 2026-05-08 14:42 | 42.48316 | 18.05832 | 33017 ft | 475 kts | 145° |
| 2026-05-08 14:43 | 42.43406 | 18.10777 | 33019 ft | 476 kts | 146° |
| 2026-05-08 14:43 | 42.38094 | 18.16116 | 33014 ft | 477 kts | 146° |
| 2026-05-08 14:44 | 42.33744 | 18.20480 | 33003 ft | 478 kts | 146° |
| 2026-05-08 14:44 | 42.28521 | 18.25711 | 33002 ft | 479 kts | 146° |
| 2026-05-08 14:45 | 42.25791 | 18.28441 | 32994 ft | 480 kts | 146° |
| 2026-05-08 14:45 | 42.20723 | 18.33500 | 32987 ft | 480 kts | 146° |
| 2026-05-08 14:46 | 42.15376 | 18.38827 | 32984 ft | 481 kts | 146° |
| 2026-05-08 14:46 | 42.10192 | 18.43981 | 32970 ft | 482 kts | 145° |
| 2026-05-08 14:47 | 42.06859 | 18.47291 | 32972 ft | 483 kts | 145° |
| 2026-05-08 14:47 | 42.01576 | 18.52900 | 32982 ft | 485 kts | 139° |
| 2026-05-08 14:48 | 41.97058 | 18.59649 | 32992 ft | 488 kts | 130° |
| 2026-05-08 14:48 | 41.92877 | 18.66636 | 32980 ft | 489 kts | 130° |
| 2026-05-08 14:49 | 41.89105 | 18.72885 | 32976 ft | 490 kts | 131° |
| 2026-05-08 14:49 | 41.84809 | 18.79937 | 32968 ft | 491 kts | 131° |
| 2026-05-08 14:50 | 41.80525 | 18.86933 | 32971 ft | 491 kts | 131° |
| 2026-05-08 14:50 | 41.76247 | 18.93899 | 32977 ft | 492 kts | 131° |
| 2026-05-08 14:51 | 41.72264 | 19.00372 | 32982 ft | 492 kts | 131° |
| 2026-05-08 14:51 | 41.67902 | 19.07449 | 32973 ft | 493 kts | 131° |
| 2026-05-08 14:52 | 41.61526 | 19.17762 | 32977 ft | 492 kts | 131° |
| 2026-05-08 14:53 | 41.57173 | 19.24785 | 32962 ft | 490 kts | 131° |
| 2026-05-08 14:53 | 41.53767 | 19.30266 | 32968 ft | 489 kts | 131° |
| 2026-05-08 14:54 | 41.49513 | 19.37097 | 32983 ft | 488 kts | 131° |
| 2026-05-08 14:54 | 41.45171 | 19.44057 | 32980 ft | 488 kts | 131° |
| 2026-05-08 14:55 | 41.40815 | 19.51021 | 32981 ft | 489 kts | 131° |
| 2026-05-08 14:55 | 41.37133 | 19.56896 | 32972 ft | 489 kts | 131° |
| 2026-05-08 14:56 | 41.32774 | 19.63836 | 32980 ft | 488 kts | 131° |
| 2026-05-08 14:56 | 41.28414 | 19.70762 | 32982 ft | 488 kts | 131° |
| 2026-05-08 14:57 | 41.24048 | 19.77680 | 32985 ft | 489 kts | 131° |
| 2026-05-08 14:57 | 41.20330 | 19.83561 | 32995 ft | 490 kts | 131° |
| 2026-05-08 14:58 | 41.15931 | 19.90503 | 32985 ft | 492 kts | 131° |
| 2026-05-08 14:58 | 41.11758 | 19.97072 | 32988 ft | 493 kts | 131° |
| 2026-05-08 14:59 | 41.07283 | 20.04101 | 32985 ft | 495 kts | 131° |
| 2026-05-08 14:59 | 41.00871 | 20.14150 | 32984 ft | 496 kts | 131° |
| 2026-05-08 15:00 | 40.96407 | 20.21118 | 32998 ft | 497 kts | 131° |
| 2026-05-08 15:00 | 40.91964 | 20.28048 | 32985 ft | 497 kts | 131° |
| 2026-05-08 15:01 | 40.87477 | 20.35025 | 33000 ft | 496 kts | 131° |
| 2026-05-08 15:01 | 40.83009 | 20.41962 | 32993 ft | 495 kts | 131° |
| 2026-05-08 15:02 | 40.78551 | 20.48864 | 33004 ft | 492 kts | 131° |
| 2026-05-08 15:02 | 40.74143 | 20.55671 | 32997 ft | 489 kts | 131° |
| 2026-05-08 15:03 | 40.69719 | 20.62487 | 32998 ft | 490 kts | 131° |
| 2026-05-08 15:03 | 40.65279 | 20.69316 | 33004 ft | 492 kts | 131° |
| 2026-05-08 15:04 | 40.60809 | 20.76176 | 33007 ft | 494 kts | 131° |
| 2026-05-08 15:04 | 40.56315 | 20.83058 | 33014 ft | 497 kts | 131° |
| 2026-05-08 15:05 | 40.51794 | 20.89968 | 33015 ft | 499 kts | 131° |
| 2026-05-08 15:05 | 40.47173 | 20.96766 | 33013 ft | 499 kts | 137° |
| 2026-05-08 15:06 | 40.41968 | 21.02792 | 32999 ft | 498 kts | 141° |
| 2026-05-08 15:06 | 40.37038 | 21.08378 | 33007 ft | 501 kts | 141° |
| 2026-05-08 15:07 | 40.31754 | 21.14418 | 33010 ft | 504 kts | 141° |
| 2026-05-08 15:07 | 40.27390 | 21.19432 | 33016 ft | 505 kts | 140° |
| 2026-05-08 15:08 | 40.22139 | 21.25458 | 33011 ft | 505 kts | 141° |
| 2026-05-08 15:08 | 40.16845 | 21.31514 | 33000 ft | 506 kts | 142° |
| 2026-05-08 15:09 | 40.11603 | 21.37493 | 33010 ft | 509 kts | 142° |
| 2026-05-08 15:09 | 40.06250 | 21.43586 | 33006 ft | 512 kts | 142° |
| 2026-05-08 15:10 | 40.00868 | 21.49704 | 33008 ft | 514 kts | 142° |
| 2026-05-08 15:10 | 39.95462 | 21.55833 | 33011 ft | 515 kts | 142° |
| 2026-05-08 15:11 | 39.90055 | 21.61942 | 33016 ft | 515 kts | 142° |
| 2026-05-08 15:11 | 39.84642 | 21.68041 | 33030 ft | 518 kts | 142° |
| 2026-05-08 15:12 | 39.79174 | 21.74192 | 33022 ft | 519 kts | 142° |
| 2026-05-08 15:12 | 39.73702 | 21.80339 | 33013 ft | 520 kts | 143° |
| 2026-05-08 15:13 | 39.68222 | 21.86480 | 33016 ft | 520 kts | 144° |
| 2026-05-08 15:13 | 39.62735 | 21.92615 | 33015 ft | 520 kts | 144° |
| 2026-05-08 15:14 | 39.57239 | 21.98748 | 33031 ft | 523 kts | 144° |
| 2026-05-08 15:14 | 39.51746 | 22.04862 | 33029 ft | 525 kts | 144° |
| 2026-05-08 15:15 | 39.46178 | 22.11047 | 33018 ft | 527 kts | 144° |
| 2026-05-08 15:15 | 39.40602 | 22.17229 | 33005 ft | 528 kts | 146° |
| 2026-05-08 15:16 | 39.35014 | 22.23410 | 33001 ft | 528 kts | 146° |
| 2026-05-08 15:16 | 39.29413 | 22.29591 | 33011 ft | 530 kts | 146° |
| 2026-05-08 15:17 | 39.23947 | 22.35608 | 33009 ft | 533 kts | 146° |
| 2026-05-08 15:17 | 39.18337 | 22.41773 | 33006 ft | 534 kts | 146° |
| 2026-05-08 15:18 | 39.12675 | 22.47984 | 32982 ft | 533 kts | 146° |
| 2026-05-08 15:18 | 39.07060 | 22.54132 | 33009 ft | 533 kts | 146° |
| 2026-05-08 15:19 | 39.01406 | 22.60304 | 33009 ft | 534 kts | 146° |
| 2026-05-08 15:19 | 38.95735 | 22.66476 | 33009 ft | 535 kts | 146° |
| 2026-05-08 15:20 | 38.90122 | 22.72576 | 33011 ft | 536 kts | 147° |
| 2026-05-08 15:20 | 38.84476 | 22.78701 | 32968 ft | 535 kts | 146° |
| 2026-05-08 15:21 | 38.78803 | 22.84846 | 32998 ft | 531 kts | 146° |
| 2026-05-08 15:21 | 38.73349 | 22.90739 | 32997 ft | 530 kts | 146° |
| 2026-05-08 15:22 | 38.67711 | 22.96813 | 33002 ft | 529 kts | 146° |
| 2026-05-08 15:22 | 38.62083 | 23.02862 | 33001 ft | 527 kts | 147° |
| 2026-05-08 15:23 | 38.56483 | 23.08872 | 33028 ft | 527 kts | 147° |
| 2026-05-08 15:23 | 38.50884 | 23.14870 | 32996 ft | 528 kts | 146° |
| 2026-05-08 15:24 | 38.45251 | 23.20891 | 33006 ft | 528 kts | 146° |
| 2026-05-08 15:24 | 38.39641 | 23.26873 | 33014 ft | 529 kts | 146° |
| 2026-05-08 15:25 | 38.34182 | 23.32683 | 33014 ft | 529 kts | 146° |
| 2026-05-08 15:25 | 38.28524 | 23.38693 | 33019 ft | 530 kts | 146° |
| 2026-05-08 15:26 | 38.23316 | 23.44215 | 33020 ft | 530 kts | 146° |
| 2026-05-08 15:26 | 38.18206 | 23.49624 | 33043 ft | 530 kts | 146° |
| 2026-05-08 15:27 | 38.12609 | 23.55528 | 33050 ft | 531 kts | 146° |
| 2026-05-08 15:27 | 38.07413 | 23.60992 | 33043 ft | 531 kts | 146° |
| 2026-05-08 15:28 | 38.03594 | 23.65004 | 33051 ft | 530 kts | 146° |
| 2026-05-08 15:28 | 37.98193 | 23.70672 | 33041 ft | 530 kts | 146° |
| 2026-05-08 15:29 | 37.92587 | 23.76545 | 33042 ft | 529 kts | 146° |
| 2026-05-08 15:29 | 37.87985 | 23.81716 | 33033 ft | 534 kts | 139° |
| 2026-05-08 15:30 | 37.83548 | 23.88259 | 33040 ft | 537 kts | 134° |
| 2026-05-08 15:30 | 37.79594 | 23.94304 | 33039 ft | 536 kts | 134° |
| 2026-05-08 15:31 | 37.75613 | 24.00300 | 33059 ft | 536 kts | 135° |
| 2026-05-08 15:31 | 37.71731 | 24.06093 | 33052 ft | 536 kts | 135° |
| 2026-05-08 15:32 | 37.67354 | 24.12602 | 33061 ft | 535 kts | 135° |
| 2026-05-08 15:32 | 37.63309 | 24.18617 | 33056 ft | 535 kts | 135° |
| 2026-05-08 15:33 | 37.58160 | 24.26162 | 33060 ft | 532 kts | 139° |
| 2026-05-08 15:33 | 37.52864 | 24.32080 | 33073 ft | 524 kts | 149° |
| 2026-05-08 15:34 | 37.46789 | 24.37019 | 33072 ft | 518 kts | 154° |
| 2026-05-08 15:34 | 37.40636 | 24.41750 | 33043 ft | 519 kts | 154° |
| 2026-05-08 15:35 | 37.34495 | 24.46524 | 33059 ft | 519 kts | 154° |
| 2026-05-08 15:35 | 37.28375 | 24.51311 | 33073 ft | 518 kts | 154° |
| 2026-05-08 15:36 | 37.23290 | 24.55286 | 33073 ft | 518 kts | 154° |
| 2026-05-08 15:36 | 37.16138 | 24.60859 | 33073 ft | 518 kts | 154° |
| 2026-05-08 15:37 | 37.10063 | 24.65583 | 33083 ft | 517 kts | 154° |
| 2026-05-08 15:37 | 37.03944 | 24.70331 | 33068 ft | 517 kts | 154° |
| 2026-05-08 15:38 | 36.97831 | 24.75067 | 33084 ft | 517 kts | 154° |
| 2026-05-08 15:38 | 36.91717 | 24.79794 | 33089 ft | 517 kts | 154° |
| 2026-05-08 15:39 | 36.85604 | 24.84535 | 33074 ft | 517 kts | 154° |
| 2026-05-08 15:39 | 36.79499 | 24.89277 | 33083 ft | 517 kts | 154° |
| 2026-05-08 15:40 | 36.73391 | 24.94009 | 33086 ft | 517 kts | 154° |
| 2026-05-08 15:40 | 36.67278 | 24.98724 | 33088 ft | 517 kts | 154° |
| 2026-05-08 15:41 | 36.61148 | 25.03412 | 33086 ft | 517 kts | 154° |
| 2026-05-08 15:41 | 36.55048 | 25.08064 | 33088 ft | 518 kts | 155° |
| 2026-05-08 15:42 | 36.48898 | 25.12755 | 33096 ft | 519 kts | 155° |
| 2026-05-08 15:42 | 36.42732 | 25.17451 | 33094 ft | 520 kts | 155° |
| 2026-05-08 15:43 | 36.36559 | 25.22143 | 33093 ft | 520 kts | 155° |
| 2026-05-08 15:43 | 36.30378 | 25.26832 | 33093 ft | 521 kts | 155° |
| 2026-05-08 15:44 | 36.24190 | 25.31517 | 33102 ft | 521 kts | 155° |
| 2026-05-08 15:44 | 36.17995 | 25.36201 | 33094 ft | 522 kts | 155° |
| 2026-05-08 15:45 | 36.11831 | 25.40851 | 33104 ft | 522 kts | 155° |
| 2026-05-08 15:45 | 36.05637 | 25.45516 | 33077 ft | 523 kts | 155° |
| 2026-05-08 15:46 | 35.99421 | 25.50194 | 33091 ft | 523 kts | 155° |
| 2026-05-08 15:46 | 35.93197 | 25.54870 | 33115 ft | 524 kts | 155° |
| 2026-05-08 15:47 | 35.86978 | 25.59534 | 33117 ft | 524 kts | 155° |
| 2026-05-08 15:47 | 35.80743 | 25.64200 | 33092 ft | 524 kts | 155° |
| 2026-05-08 15:48 | 35.71405 | 25.71173 | 33101 ft | 523 kts | 155° |
| 2026-05-08 15:49 | 35.65179 | 25.75812 | 33112 ft | 523 kts | 155° |
| 2026-05-08 15:49 | 35.58948 | 25.80445 | 33110 ft | 523 kts | 155° |
| 2026-05-08 15:50 | 35.52749 | 25.85046 | 33113 ft | 523 kts | 155° |
| 2026-05-08 15:50 | 35.46477 | 25.89694 | 33116 ft | 523 kts | 155° |
| 2026-05-08 15:51 | 35.40279 | 25.94278 | 33110 ft | 523 kts | 155° |
| 2026-05-08 15:51 | 35.34033 | 25.98888 | 33113 ft | 524 kts | 155° |
| 2026-05-08 15:52 | 35.27791 | 26.03488 | 33120 ft | 524 kts | 155° |
| 2026-05-08 15:52 | 35.21529 | 26.08095 | 33111 ft | 524 kts | 155° |
| 2026-05-08 15:53 | 35.15272 | 26.12690 | 33133 ft | 525 kts | 155° |
| 2026-05-08 15:53 | 35.09005 | 26.17288 | 33133 ft | 526 kts | 154° |
| 2026-05-08 15:54 | 35.03077 | 26.22572 | 33112 ft | 536 kts | 144° |
| 2026-05-08 15:54 | 34.97439 | 26.28549 | 33118 ft | 537 kts | 144° |
| 2026-05-08 15:55 | 34.91793 | 26.34508 | 33124 ft | 537 kts | 144° |
| 2026-05-08 15:55 | 34.84279 | 26.42325 | 33128 ft | 538 kts | 145° |
| 2026-05-08 15:56 | 34.78563 | 26.48233 | 33126 ft | 539 kts | 145° |
| 2026-05-08 15:56 | 34.72834 | 26.54149 | 33129 ft | 540 kts | 145° |
| 2026-05-08 15:57 | 34.67100 | 26.60062 | 33126 ft | 540 kts | 144° |
| 2026-05-08 15:57 | 34.61367 | 26.65965 | 33127 ft | 539 kts | 144° |
| 2026-05-08 15:58 | 34.55675 | 26.71815 | 33131 ft | 539 kts | 144° |
| 2026-05-08 15:58 | 34.49953 | 26.77684 | 33130 ft | 538 kts | 144° |
| 2026-05-08 15:59 | 34.44235 | 26.83537 | 33130 ft | 538 kts | 144° |
| 2026-05-08 15:59 | 34.38514 | 26.89383 | 33128 ft | 537 kts | 144° |
| 2026-05-08 16:00 | 34.32802 | 26.95208 | 33120 ft | 536 kts | 144° |
| 2026-05-08 16:00 | 34.27096 | 27.01018 | 33131 ft | 535 kts | 144° |
| 2026-05-08 16:01 | 34.21391 | 27.06815 | 33133 ft | 535 kts | 144° |
| 2026-05-08 16:01 | 34.15686 | 27.12602 | 33130 ft | 535 kts | 144° |
| 2026-05-08 16:02 | 34.09983 | 27.18377 | 33128 ft | 535 kts | 144° |
| 2026-05-08 16:02 | 34.04313 | 27.24109 | 33123 ft | 535 kts | 144° |
| 2026-05-08 16:03 | 33.98561 | 27.29895 | 33133 ft | 534 kts | 146° |
| 2026-05-08 16:03 | 33.92446 | 27.34754 | 33146 ft | 526 kts | 156° |
| 2026-05-08 16:04 | 33.85827 | 27.38381 | 33149 ft | 522 kts | 162° |
| 2026-05-08 16:04 | 33.79141 | 27.41839 | 33149 ft | 522 kts | 162° |
| 2026-05-08 16:05 | 33.72473 | 27.45332 | 33134 ft | 523 kts | 161° |
| 2026-05-08 16:05 | 33.65812 | 27.48851 | 33145 ft | 523 kts | 161° |
| 2026-05-08 16:06 | 33.59144 | 27.52374 | 33149 ft | 524 kts | 161° |
| 2026-05-08 16:06 | 33.52455 | 27.55899 | 33149 ft | 525 kts | 161° |
| 2026-05-08 16:07 | 33.45772 | 27.59413 | 33139 ft | 524 kts | 161° |
| 2026-05-08 16:07 | 33.39123 | 27.62902 | 33147 ft | 524 kts | 161° |
| 2026-05-08 16:08 | 33.32452 | 27.66397 | 33152 ft | 523 kts | 161° |
| 2026-05-08 16:08 | 33.25775 | 27.69889 | 33151 ft | 523 kts | 161° |
| 2026-05-08 16:09 | 33.19111 | 27.73369 | 33145 ft | 522 kts | 161° |
| 2026-05-08 16:09 | 33.12445 | 27.76844 | 33150 ft | 521 kts | 161° |
| 2026-05-08 16:10 | 33.05795 | 27.80305 | 33148 ft | 521 kts | 161° |
| 2026-05-08 16:10 | 32.99153 | 27.83756 | 33147 ft | 521 kts | 161° |
| 2026-05-08 16:11 | 32.92547 | 27.87182 | 33134 ft | 520 kts | 160° |
| 2026-05-08 16:11 | 32.85907 | 27.90621 | 33145 ft | 520 kts | 160° |
| 2026-05-08 16:12 | 32.79266 | 27.94054 | 33144 ft | 520 kts | 160° |
| 2026-05-08 16:12 | 32.72629 | 27.97480 | 33146 ft | 521 kts | 160° |
| 2026-05-08 16:13 | 32.65976 | 28.00908 | 33147 ft | 521 kts | 160° |
| 2026-05-08 16:13 | 32.59322 | 28.04332 | 33145 ft | 521 kts | 160° |
| 2026-05-08 16:14 | 32.52671 | 28.07748 | 33144 ft | 521 kts | 160° |
| 2026-05-08 16:14 | 32.46000 | 28.11169 | 33143 ft | 522 kts | 160° |
| 2026-05-08 16:15 | 32.39381 | 28.14558 | 33129 ft | 522 kts | 160° |
| 2026-05-08 16:15 | 32.32718 | 28.17965 | 33149 ft | 522 kts | 160° |
| 2026-05-08 16:16 | 32.26053 | 28.21367 | 33150 ft | 522 kts | 160° |
| 2026-05-08 16:16 | 32.19380 | 28.24767 | 33141 ft | 522 kts | 160° |
| 2026-05-08 16:17 | 32.13838 | 28.27587 | 33145 ft | 522 kts | 160° |
| 2026-05-08 16:17 | 32.06034 | 28.31551 | 33152 ft | 522 kts | 160° |
| 2026-05-08 16:18 | 31.99362 | 28.34936 | 33140 ft | 522 kts | 160° |
| 2026-05-08 16:18 | 31.92679 | 28.38320 | 33130 ft | 522 kts | 160° |
| 2026-05-08 16:19 | 31.86003 | 28.41696 | 33117 ft | 522 kts | 160° |
| 2026-05-08 16:19 | 31.79314 | 28.45053 | 33150 ft | 522 kts | 160° |
| 2026-05-08 16:20 | 31.72654 | 28.48379 | 33142 ft | 523 kts | 160° |
| 2026-05-08 16:20 | 31.65960 | 28.51723 | 33142 ft | 523 kts | 160° |
| 2026-05-08 16:21 | 31.59251 | 28.55069 | 33140 ft | 524 kts | 160° |
| 2026-05-08 16:21 | 31.52540 | 28.58410 | 33136 ft | 524 kts | 160° |
| 2026-05-08 16:22 | 31.45830 | 28.61745 | 33140 ft | 524 kts | 160° |
| 2026-05-08 16:22 | 31.39110 | 28.65082 | 33139 ft | 524 kts | 160° |
| 2026-05-08 16:23 | 31.32440 | 28.68389 | 33134 ft | 524 kts | 161° |
| 2026-05-08 16:23 | 31.25718 | 28.71716 | 33129 ft | 525 kts | 161° |
| 2026-05-08 16:24 | 31.18987 | 28.75043 | 33143 ft | 526 kts | 161° |
| 2026-05-08 16:24 | 31.12232 | 28.78376 | 33135 ft | 527 kts | 161° |
| 2026-05-08 16:25 | 31.05476 | 28.81705 | 33134 ft | 528 kts | 161° |
| 2026-05-08 16:25 | 30.98700 | 28.85039 | 33125 ft | 528 kts | 161° |
| 2026-05-08 16:26 | 30.91926 | 28.88367 | 33135 ft | 528 kts | 161° |
| 2026-05-08 16:26 | 30.85146 | 28.91692 | 33122 ft | 529 kts | 161° |
| 2026-05-08 16:27 | 30.78366 | 28.95012 | 33129 ft | 529 kts | 161° |
| 2026-05-08 16:27 | 30.71583 | 28.98329 | 33110 ft | 528 kts | 160° |
| 2026-05-08 16:28 | 30.64816 | 29.01634 | 33112 ft | 527 kts | 161° |
| 2026-05-08 16:28 | 30.58066 | 29.04925 | 33109 ft | 525 kts | 161° |
| 2026-05-08 16:29 | 30.51526 | 29.08590 | 33096 ft | 529 kts | 150° |
| 2026-05-08 16:29 | 30.45671 | 29.13784 | 33082 ft | 533 kts | 137° |
| 2026-05-08 16:30 | 30.40537 | 29.19980 | 33089 ft | 532 kts | 135° |
| 2026-05-08 16:30 | 30.35444 | 29.26222 | 33092 ft | 531 kts | 135° |
| 2026-05-08 16:31 | 30.30337 | 29.32393 | 33090 ft | 530 kts | 135° |
| 2026-05-08 16:31 | 30.25245 | 29.38485 | 33080 ft | 529 kts | 135° |
| 2026-05-08 16:32 | 30.20127 | 29.44590 | 33079 ft | 528 kts | 135° |
| 2026-05-08 16:32 | 30.15010 | 29.50687 | 33076 ft | 528 kts | 135° |
| 2026-05-08 16:33 | 30.09894 | 29.56780 | 33062 ft | 528 kts | 135° |
| 2026-05-08 16:33 | 30.04768 | 29.62873 | 33072 ft | 528 kts | 135° |
| 2026-05-08 16:34 | 29.99644 | 29.68955 | 33078 ft | 529 kts | 135° |
| 2026-05-08 16:34 | 29.94519 | 29.75030 | 33073 ft | 530 kts | 135° |
| 2026-05-08 16:35 | 29.89363 | 29.81131 | 33071 ft | 530 kts | 135° |
| 2026-05-08 16:35 | 29.84213 | 29.87214 | 33073 ft | 531 kts | 135° |
| 2026-05-08 16:36 | 29.79083 | 29.93265 | 33069 ft | 531 kts | 135° |
| 2026-05-08 16:36 | 29.73918 | 29.99349 | 33066 ft | 531 kts | 135° |
| 2026-05-08 16:37 | 29.68749 | 30.05428 | 33066 ft | 531 kts | 135° |
| 2026-05-08 16:37 | 29.63572 | 30.11505 | 33058 ft | 531 kts | 135° |
| 2026-05-08 16:38 | 29.58396 | 30.17571 | 33054 ft | 532 kts | 135° |
| 2026-05-08 16:38 | 29.53213 | 30.23639 | 33056 ft | 531 kts | 135° |
| 2026-05-08 16:39 | 29.48032 | 30.29695 | 33052 ft | 531 kts | 135° |
| 2026-05-08 16:39 | 29.42886 | 30.35701 | 33053 ft | 531 kts | 135° |
| 2026-05-08 16:40 | 29.37714 | 30.41745 | 33047 ft | 531 kts | 134° |
| 2026-05-08 16:40 | 29.32594 | 30.47848 | 33049 ft | 530 kts | 134° |
| 2026-05-08 16:41 | 29.27490 | 30.53955 | 33049 ft | 530 kts | 134° |
| 2026-05-08 16:42 | 29.19820 | 30.63085 | 33048 ft | 530 kts | 134° |
| 2026-05-08 16:42 | 29.14687 | 30.69173 | 33050 ft | 530 kts | 134° |
| 2026-05-08 16:43 | 29.09564 | 30.75239 | 33049 ft | 530 kts | 134° |
| 2026-05-08 16:43 | 29.05292 | 30.80292 | 33049 ft | 531 kts | 134° |
| 2026-05-08 16:44 | 29.00167 | 30.86346 | 33049 ft | 530 kts | 134° |
| 2026-05-08 16:44 | 28.94214 | 30.93366 | 33051 ft | 529 kts | 134° |
| 2026-05-08 16:45 | 28.89925 | 30.98416 | 33044 ft | 528 kts | 134° |
| 2026-05-08 16:45 | 28.84808 | 31.04433 | 33045 ft | 528 kts | 134° |
| 2026-05-08 16:46 | 28.79690 | 31.10442 | 33047 ft | 528 kts | 134° |
| 2026-05-08 16:46 | 28.74565 | 31.16452 | 33051 ft | 528 kts | 134° |
| 2026-05-08 16:47 | 28.69443 | 31.22452 | 33049 ft | 528 kts | 134° |
| 2026-05-08 16:47 | 28.64500 | 31.28568 | 33052 ft | 528 kts | 131° |
| 2026-05-08 16:48 | 28.59614 | 31.34828 | 33047 ft | 528 kts | 131° |
| 2026-05-08 16:48 | 28.54714 | 31.41056 | 33058 ft | 528 kts | 131° |
| 2026-05-08 16:49 | 28.49778 | 31.47266 | 33057 ft | 528 kts | 132° |
| 2026-05-08 16:49 | 28.44873 | 31.53411 | 33043 ft | 528 kts | 131° |
| 2026-05-08 16:50 | 28.39929 | 31.59599 | 33056 ft | 528 kts | 131° |
| 2026-05-08 16:50 | 28.34988 | 31.65778 | 33046 ft | 529 kts | 131° |
| 2026-05-08 16:51 | 28.30038 | 31.71961 | 33037 ft | 529 kts | 132° |
| 2026-05-08 16:51 | 28.25089 | 31.78132 | 33035 ft | 528 kts | 132° |
| 2026-05-08 16:52 | 28.20138 | 31.84296 | 33035 ft | 528 kts | 132° |
| 2026-05-08 16:52 | 28.15189 | 31.90451 | 33035 ft | 528 kts | 132° |
| 2026-05-08 16:53 | 28.07787 | 31.99640 | 33031 ft | 528 kts | 132° |
| 2026-05-08 16:53 | 28.03076 | 32.06016 | 33026 ft | 528 kts | 124° |
| 2026-05-08 16:54 | 27.99357 | 32.13143 | 33029 ft | 526 kts | 116° |
| 2026-05-08 16:54 | 27.95914 | 32.20457 | 33002 ft | 527 kts | 117° |
| 2026-05-08 16:55 | 27.92427 | 32.27766 | 33005 ft | 527 kts | 117° |
| 2026-05-08 16:55 | 27.88913 | 32.35045 | 32969 ft | 527 kts | 117° |
| 2026-05-08 16:56 | 27.85389 | 32.42313 | 32964 ft | 527 kts | 117° |
| 2026-05-08 16:56 | 27.81860 | 32.49584 | 32965 ft | 528 kts | 117° |
| 2026-05-08 16:57 | 27.78329 | 32.56850 | 32963 ft | 528 kts | 117° |
| 2026-05-08 16:57 | 27.74815 | 32.64072 | 32959 ft | 528 kts | 117° |
| 2026-05-08 16:58 | 27.71278 | 32.71329 | 32957 ft | 528 kts | 117° |
| 2026-05-08 16:58 | 27.67732 | 32.78589 | 32946 ft | 528 kts | 117° |
| 2026-05-08 16:59 | 27.64182 | 32.85848 | 32946 ft | 529 kts | 117° |
| 2026-05-08 16:59 | 27.60621 | 32.93115 | 32937 ft | 529 kts | 117° |
| 2026-05-08 17:00 | 27.57056 | 33.00379 | 32941 ft | 530 kts | 117° |
| 2026-05-08 17:00 | 27.53482 | 33.07648 | 32938 ft | 530 kts | 117° |
| 2026-05-08 17:01 | 27.49902 | 33.14918 | 32937 ft | 531 kts | 117° |
| 2026-05-08 17:01 | 27.46340 | 33.22136 | 32938 ft | 531 kts | 117° |
| 2026-05-08 17:02 | 27.42744 | 33.29416 | 32939 ft | 532 kts | 117° |
| 2026-05-08 17:02 | 27.39143 | 33.36693 | 32941 ft | 532 kts | 117° |
| 2026-05-08 17:03 | 27.35536 | 33.43969 | 32910 ft | 532 kts | 117° |
| 2026-05-08 17:03 | 27.31924 | 33.51244 | 32922 ft | 532 kts | 117° |
| 2026-05-08 17:04 | 27.28343 | 33.58450 | 32931 ft | 531 kts | 117° |
| 2026-05-08 17:04 | 27.24734 | 33.65700 | 32929 ft | 531 kts | 117° |
| 2026-05-08 17:05 | 27.21119 | 33.72953 | 32928 ft | 532 kts | 117° |
| 2026-05-08 17:05 | 27.17567 | 33.80234 | 32915 ft | 531 kts | 114° |
| 2026-05-08 17:06 | 27.14766 | 33.87872 | 32921 ft | 529 kts | 109° |
| 2026-05-08 17:06 | 27.12098 | 33.95572 | 32915 ft | 529 kts | 109° |
| 2026-05-08 17:07 | 27.09379 | 34.03250 | 32908 ft | 530 kts | 109° |
| 2026-05-08 17:07 | 27.06631 | 34.10921 | 32906 ft | 530 kts | 109° |
| 2026-05-08 17:08 | 27.03878 | 34.18598 | 32899 ft | 530 kts | 109° |
| 2026-05-08 17:08 | 27.01140 | 34.26231 | 32901 ft | 530 kts | 109° |
| 2026-05-08 17:09 | 26.98391 | 34.33902 | 32890 ft | 530 kts | 109° |
| 2026-05-08 17:09 | 26.95638 | 34.41575 | 32888 ft | 530 kts | 109° |
| 2026-05-08 17:10 | 26.92882 | 34.49241 | 32895 ft | 531 kts | 109° |
| 2026-05-08 17:10 | 26.90119 | 34.56911 | 32888 ft | 531 kts | 109° |
| 2026-05-08 17:11 | 26.87348 | 34.64586 | 32887 ft | 531 kts | 109° |
| 2026-05-08 17:11 | 26.84574 | 34.72257 | 32887 ft | 531 kts | 109° |
| 2026-05-08 17:12 | 26.81797 | 34.79919 | 32885 ft | 531 kts | 109° |
| 2026-05-08 17:12 | 26.79015 | 34.87582 | 32884 ft | 533 kts | 109° |
| 2026-05-08 17:13 | 26.76199 | 34.95324 | 32889 ft | 541 kts | 109° |
| 2026-05-08 17:13 | 26.73346 | 35.03116 | 32873 ft | 540 kts | 109° |
| 2026-05-08 17:14 | 26.70495 | 35.10880 | 32878 ft | 539 kts | 109° |
| 2026-05-08 17:14 | 26.67669 | 35.18571 | 32875 ft | 538 kts | 109° |
| 2026-05-08 17:15 | 26.64822 | 35.26308 | 32887 ft | 537 kts | 109° |
| 2026-05-08 17:15 | 26.61974 | 35.34031 | 32883 ft | 537 kts | 109° |
| 2026-05-08 17:16 | 26.59125 | 35.41745 | 32872 ft | 537 kts | 109° |
| 2026-05-08 17:16 | 26.56269 | 35.49458 | 32877 ft | 538 kts | 110° |
| 2026-05-08 17:17 | 26.53344 | 35.57155 | 32873 ft | 539 kts | 110° |
| 2026-05-08 17:17 | 26.50380 | 35.64852 | 32875 ft | 539 kts | 110° |
| 2026-05-08 17:18 | 26.47433 | 35.72516 | 32873 ft | 540 kts | 110° |
| 2026-05-08 17:18 | 26.44474 | 35.80221 | 32863 ft | 540 kts | 110° |
| 2026-05-08 17:19 | 26.41511 | 35.87927 | 32875 ft | 541 kts | 110° |
| 2026-05-08 17:19 | 26.38540 | 35.95637 | 32868 ft | 541 kts | 110° |
| 2026-05-08 17:20 | 26.35562 | 36.03349 | 32873 ft | 541 kts | 110° |
| 2026-05-08 17:20 | 26.32581 | 36.11054 | 32866 ft | 541 kts | 110° |
| 2026-05-08 17:21 | 26.29596 | 36.18757 | 32863 ft | 541 kts | 110° |
| 2026-05-08 17:21 | 26.26629 | 36.26398 | 32862 ft | 541 kts | 110° |
| 2026-05-08 17:22 | 26.23636 | 36.34093 | 32860 ft | 541 kts | 110° |
| 2026-05-08 17:22 | 26.20646 | 36.41771 | 32856 ft | 540 kts | 110° |
| 2026-05-08 17:23 | 26.18694 | 36.49751 | 32879 ft | 530 kts | 92° |
| 2026-05-08 17:23 | 26.18634 | 36.57812 | 32866 ft | 520 kts | 78° |
| 2026-05-08 17:24 | 26.19529 | 36.65832 | 32867 ft | 519 kts | 77° |
| 2026-05-08 17:24 | 26.20399 | 36.73777 | 32875 ft | 521 kts | 78° |
| 2026-05-08 17:25 | 26.21217 | 36.81797 | 32875 ft | 521 kts | 78° |
| 2026-05-08 17:25 | 26.22007 | 36.89830 | 32878 ft | 521 kts | 78° |
| 2026-05-08 17:26 | 26.22793 | 36.97865 | 32882 ft | 521 kts | 78° |
| 2026-05-08 17:26 | 26.23576 | 37.05892 | 32895 ft | 521 kts | 78° |
| 2026-05-08 17:27 | 26.24358 | 37.13925 | 32894 ft | 521 kts | 78° |
| 2026-05-08 17:27 | 26.25135 | 37.21941 | 32909 ft | 521 kts | 78° |
| 2026-05-08 17:28 | 26.25907 | 37.29978 | 32934 ft | 521 kts | 78° |
| 2026-05-08 17:28 | 26.26669 | 37.37960 | 32931 ft | 521 kts | 78° |
| 2026-05-08 17:29 | 26.27431 | 37.45989 | 32929 ft | 520 kts | 78° |
| 2026-05-08 17:29 | 26.28188 | 37.54002 | 32928 ft | 520 kts | 78° |
| 2026-05-08 17:30 | 26.28938 | 37.62009 | 32917 ft | 519 kts | 78° |
| 2026-05-08 17:30 | 26.29686 | 37.69995 | 32923 ft | 519 kts | 78° |
| 2026-05-08 17:31 | 26.30425 | 37.77951 | 32914 ft | 520 kts | 78° |
| 2026-05-08 17:31 | 26.31176 | 37.86026 | 32903 ft | 520 kts | 78° |
| 2026-05-08 17:32 | 26.31919 | 37.93995 | 32919 ft | 520 kts | 78° |
| 2026-05-08 17:32 | 26.32660 | 38.02035 | 32912 ft | 521 kts | 78° |
| 2026-05-08 17:33 | 26.33397 | 38.10069 | 32911 ft | 520 kts | 78° |
| 2026-05-08 17:33 | 26.34006 | 38.16749 | 32902 ft | 520 kts | 78° |
| 2026-05-08 17:34 | 26.34735 | 38.24777 | 32908 ft | 520 kts | 78° |
| 2026-05-08 17:34 | 26.35447 | 38.32804 | 32909 ft | 520 kts | 79° |
| 2026-05-08 17:35 | 26.36147 | 38.40838 | 32921 ft | 520 kts | 79° |
| 2026-05-08 17:35 | 26.36838 | 38.48801 | 32933 ft | 519 kts | 79° |
| 2026-05-08 17:36 | 26.37531 | 38.56821 | 32943 ft | 519 kts | 78° |
| 2026-05-08 17:36 | 26.38220 | 38.64826 | 32938 ft | 519 kts | 78° |
| 2026-05-08 17:37 | 26.38905 | 38.72845 | 32934 ft | 519 kts | 79° |
| 2026-05-08 17:37 | 26.39585 | 38.80869 | 32942 ft | 519 kts | 79° |
| 2026-05-08 17:38 | 26.40261 | 38.88896 | 32951 ft | 519 kts | 79° |
| 2026-05-08 17:38 | 26.40934 | 38.96932 | 32966 ft | 520 kts | 79° |
| 2026-05-08 17:39 | 26.41603 | 39.04984 | 32959 ft | 521 kts | 79° |
| 2026-05-08 17:39 | 26.42263 | 39.12989 | 32984 ft | 521 kts | 79° |
| 2026-05-08 17:40 | 26.42924 | 39.21049 | 32965 ft | 522 kts | 79° |
| 2026-05-08 17:40 | 26.43567 | 39.29112 | 32960 ft | 522 kts | 81° |
| 2026-05-08 17:41 | 26.44002 | 39.37219 | 32978 ft | 524 kts | 83° |
| 2026-05-08 17:41 | 26.44357 | 39.45341 | 32969 ft | 524 kts | 83° |
| 2026-05-08 17:42 | 26.44733 | 39.53466 | 32972 ft | 524 kts | 82° |
| 2026-05-08 17:42 | 26.45129 | 39.61602 | 32987 ft | 525 kts | 83° |
| 2026-05-08 17:43 | 26.45529 | 39.69747 | 33005 ft | 526 kts | 83° |
| 2026-05-08 17:43 | 26.45922 | 39.77899 | 32987 ft | 526 kts | 83° |
| 2026-05-08 17:44 | 26.46308 | 39.86064 | 32981 ft | 527 kts | 83° |
| 2026-05-08 17:44 | 26.46687 | 39.94178 | 32996 ft | 527 kts | 83° |
| 2026-05-08 17:45 | 26.47065 | 40.02350 | 32999 ft | 527 kts | 83° |
| 2026-05-08 17:45 | 26.47439 | 40.10542 | 32993 ft | 529 kts | 84° |
| 2026-05-08 17:46 | 26.47809 | 40.18753 | 32995 ft | 529 kts | 84° |
| 2026-05-08 17:46 | 26.48175 | 40.26964 | 32983 ft | 530 kts | 85° |
| 2026-05-08 17:47 | 26.48534 | 40.35156 | 33002 ft | 532 kts | 85° |
| 2026-05-08 17:47 | 26.48834 | 40.42064 | 32989 ft | 533 kts | 85° |
| 2026-05-08 17:48 | 26.49247 | 40.51676 | 32983 ft | 534 kts | 86° |
| 2026-05-08 17:48 | 26.49596 | 40.59969 | 32991 ft | 535 kts | 86° |
| 2026-05-08 17:49 | 26.49943 | 40.68283 | 32986 ft | 536 kts | 86° |
| 2026-05-08 17:49 | 26.50286 | 40.76616 | 32990 ft | 537 kts | 86° |
| 2026-05-08 17:50 | 26.50625 | 40.84951 | 32996 ft | 538 kts | 86° |
| 2026-05-08 17:50 | 26.50960 | 40.93289 | 32986 ft | 538 kts | 88° |
| 2026-05-08 17:51 | 26.51289 | 41.01637 | 33002 ft | 538 kts | 88° |
| 2026-05-08 17:51 | 26.51138 | 41.09937 | 33015 ft | 538 kts | 95° |
| 2026-05-08 17:52 | 26.50506 | 41.18264 | 33013 ft | 538 kts | 97° |
| 2026-05-08 17:53 | 26.49554 | 41.30759 | 33016 ft | 538 kts | 97° |
| 2026-05-08 17:53 | 26.48957 | 41.39078 | 33018 ft | 537 kts | 98° |
| 2026-05-08 17:54 | 26.48364 | 41.47402 | 33024 ft | 538 kts | 98° |
| 2026-05-08 17:54 | 26.47764 | 41.55728 | 33022 ft | 538 kts | 98° |
| 2026-05-08 17:55 | 26.47160 | 41.64022 | 33023 ft | 540 kts | 98° |
| 2026-05-08 17:55 | 26.46542 | 41.72394 | 33028 ft | 541 kts | 98° |
| 2026-05-08 17:56 | 26.45920 | 41.80768 | 33020 ft | 541 kts | 99° |
| 2026-05-08 17:56 | 26.45294 | 41.89142 | 33030 ft | 542 kts | 99° |
| 2026-05-08 17:57 | 26.44663 | 41.97520 | 33034 ft | 542 kts | 99° |
| 2026-05-08 17:57 | 26.44026 | 42.05909 | 33037 ft | 543 kts | 99° |
| 2026-05-08 17:58 | 26.43383 | 42.14304 | 33046 ft | 543 kts | 99° |
| 2026-05-08 17:58 | 26.42735 | 42.22709 | 33027 ft | 544 kts | 100° |
| 2026-05-08 17:59 | 26.42080 | 42.31130 | 33047 ft | 545 kts | 100° |
| 2026-05-08 17:59 | 26.41420 | 42.39559 | 33060 ft | 546 kts | 100° |
| 2026-05-08 18:00 | 26.40758 | 42.47957 | 33054 ft | 546 kts | 100° |
| 2026-05-08 18:00 | 26.39750 | 42.60612 | 33056 ft | 546 kts | 101° |
| 2026-05-08 18:01 | 26.39071 | 42.69039 | 33046 ft | 545 kts | 101° |
| 2026-05-08 18:01 | 26.38391 | 42.77449 | 33049 ft | 544 kts | 101° |
| 2026-05-08 18:02 | 26.37821 | 42.84439 | 33052 ft | 544 kts | 101° |
| 2026-05-08 18:02 | 26.37014 | 42.94260 | 33049 ft | 544 kts | 101° |
| 2026-05-08 18:03 | 26.36324 | 43.02610 | 33034 ft | 543 kts | 102° |
| 2026-05-08 18:03 | 26.35620 | 43.11008 | 33050 ft | 544 kts | 102° |
| 2026-05-08 18:04 | 26.34904 | 43.19412 | 33050 ft | 545 kts | 102° |
| 2026-05-08 18:04 | 26.34184 | 43.27833 | 33064 ft | 546 kts | 102° |
| 2026-05-08 18:05 | 26.33459 | 43.36268 | 33046 ft | 547 kts | 102° |
| 2026-05-08 18:05 | 26.32730 | 43.44699 | 33017 ft | 546 kts | 102° |
| 2026-05-08 18:06 | 26.31995 | 43.53138 | 33044 ft | 547 kts | 102° |
| 2026-05-08 18:06 | 26.31258 | 43.61532 | 33049 ft | 548 kts | 102° |
| 2026-05-08 18:07 | 26.30512 | 43.69984 | 33048 ft | 549 kts | 102° |
| 2026-05-08 18:07 | 26.29027 | 43.78225 | 33057 ft | 537 kts | 115° |
| 2026-05-08 18:08 | 26.26315 | 43.85883 | 33038 ft | 525 kts | 126° |
| 2026-05-08 18:08 | 26.22938 | 43.93088 | 33046 ft | 525 kts | 126° |
| 2026-05-08 18:09 | 26.19550 | 44.00307 | 33049 ft | 526 kts | 126° |
| 2026-05-08 18:09 | 26.16201 | 44.07544 | 33044 ft | 525 kts | 126° |
| 2026-05-08 18:10 | 26.12873 | 44.14771 | 33046 ft | 524 kts | 126° |
| 2026-05-08 18:10 | 26.09545 | 44.21982 | 33046 ft | 523 kts | 126° |
| 2026-05-08 18:11 | 26.06220 | 44.29170 | 33054 ft | 522 kts | 126° |
| 2026-05-08 18:11 | 26.02895 | 44.36341 | 33043 ft | 521 kts | 126° |
| 2026-05-08 18:12 | 25.99591 | 44.43459 | 33035 ft | 520 kts | 126° |
| 2026-05-08 18:12 | 25.96266 | 44.50605 | 33051 ft | 520 kts | 126° |
| 2026-05-08 18:13 | 25.92941 | 44.57744 | 33058 ft | 520 kts | 126° |
| 2026-05-08 18:13 | 25.89616 | 44.64870 | 33045 ft | 519 kts | 126° |
| 2026-05-08 18:14 | 25.86298 | 44.71975 | 32662 ft | 519 kts | 126° |
| 2026-05-08 18:14 | 25.84617 | 44.75553 | 31764 ft | 524 kts | 125° |
| 2026-05-08 18:14 | 25.82932 | 44.79134 | 30915 ft | 523 kts | 124° |
| 2026-05-08 18:15 | 25.81255 | 44.82701 | 30229 ft | 519 kts | 124° |
| 2026-05-08 18:15 | 25.79596 | 44.86235 | 29582 ft | 513 kts | 123° |
| 2026-05-08 18:15 | 25.77954 | 44.89729 | 28952 ft | 507 kts | 123° |
| 2026-05-08 18:15 | 25.76334 | 44.93173 | 28379 ft | 500 kts | 123° |
| 2026-05-08 18:16 | 25.74728 | 44.96579 | 27834 ft | 494 kts | 123° |
| 2026-05-08 18:16 | 25.73161 | 44.99896 | 27291 ft | 489 kts | 123° |
| 2026-05-08 18:16 | 25.71590 | 45.03220 | 26765 ft | 483 kts | 123° |
| 2026-05-08 18:16 | 25.70036 | 45.06506 | 26224 ft | 478 kts | 123° |
| 2026-05-08 18:17 | 25.68500 | 45.09753 | 25723 ft | 473 kts | 123° |
| 2026-05-08 18:17 | 25.66977 | 45.12971 | 25202 ft | 469 kts | 123° |
| 2026-05-08 18:17 | 25.65466 | 45.16161 | 24703 ft | 465 kts | 123° |
| 2026-05-08 18:17 | 25.63971 | 45.19322 | 24184 ft | 462 kts | 122° |
| 2026-05-08 18:18 | 25.62484 | 45.22466 | 23671 ft | 458 kts | 122° |
| 2026-05-08 18:18 | 25.61009 | 45.25581 | 23084 ft | 455 kts | 122° |
| 2026-05-08 18:18 | 25.59544 | 45.28676 | 22539 ft | 450 kts | 122° |
| 2026-05-08 18:18 | 25.58097 | 45.31730 | 22058 ft | 445 kts | 122° |
| 2026-05-08 18:19 | 25.56664 | 45.34752 | 21566 ft | 441 kts | 122° |
| 2026-05-08 18:19 | 25.55243 | 45.37745 | 21075 ft | 437 kts | 122° |
| 2026-05-08 18:19 | 25.53829 | 45.40721 | 20604 ft | 434 kts | 122° |
| 2026-05-08 18:19 | 25.52431 | 45.43663 | 20116 ft | 431 kts | 122° |
| 2026-05-08 18:20 | 25.51039 | 45.46586 | 19664 ft | 428 kts | 122° |
| 2026-05-08 18:20 | 25.49656 | 45.49493 | 19183 ft | 426 kts | 123° |
| 2026-05-08 18:20 | 25.48743 | 45.51408 | 18871 ft | 425 kts | 122° |
| 2026-05-08 18:20 | 25.46898 | 45.55280 | 18186 ft | 424 kts | 123° |
| 2026-05-08 18:21 | 25.45543 | 45.58117 | 17668 ft | 422 kts | 121° |
| 2026-05-08 18:21 | 25.44180 | 45.60976 | 17164 ft | 419 kts | 121° |
| 2026-05-08 18:21 | 25.42838 | 45.63790 | 16962 ft | 408 kts | 121° |
| 2026-05-08 18:21 | 25.41531 | 45.66528 | 16779 ft | 397 kts | 121° |
| 2026-05-08 18:22 | 25.40257 | 45.69197 | 16615 ft | 388 kts | 121° |
| 2026-05-08 18:22 | 25.39410 | 45.70967 | 16499 ft | 381 kts | 121° |
| 2026-05-08 18:22 | 25.38198 | 45.73502 | 16341 ft | 372 kts | 122° |
| 2026-05-08 18:22 | 25.37002 | 45.76001 | 16195 ft | 363 kts | 122° |
| 2026-05-08 18:23 | 25.35835 | 45.78442 | 16054 ft | 354 kts | 121° |
| 2026-05-08 18:23 | 25.34831 | 45.80929 | 15703 ft | 357 kts | 114° |
| 2026-05-08 18:23 | 25.34000 | 45.83545 | 15019 ft | 365 kts | 111° |
| 2026-05-08 18:23 | 25.33207 | 45.86263 | 14233 ft | 376 kts | 111° |
| 2026-05-08 18:24 | 25.32412 | 45.89008 | 13701 ft | 376 kts | 112° |
| 2026-05-08 18:24 | 25.31599 | 45.91762 | 13092 ft | 376 kts | 112° |
| 2026-05-08 18:24 | 25.30772 | 45.94505 | 12521 ft | 376 kts | 112° |
| 2026-05-08 18:24 | 25.29938 | 45.97234 | 11992 ft | 374 kts | 111° |
| 2026-05-08 18:25 | 25.29110 | 45.99917 | 11505 ft | 372 kts | 111° |
| 2026-05-08 18:25 | 25.28272 | 46.02619 | 11039 ft | 369 kts | 111° |
| 2026-05-08 18:25 | 25.27442 | 46.05287 | 10599 ft | 366 kts | 111° |
| 2026-05-08 18:25 | 25.26617 | 46.07931 | 10210 ft | 361 kts | 111° |
| 2026-05-08 18:26 | 25.25793 | 46.10567 | 10056 ft | 367 kts | 111° |
| 2026-05-08 18:26 | 25.24961 | 46.13224 | 10021 ft | 364 kts | 111° |
| 2026-05-08 18:26 | 25.24141 | 46.15849 | 10011 ft | 360 kts | 110° |
| 2026-05-08 18:26 | 25.23322 | 46.18461 | 10012 ft | 360 kts | 111° |
| 2026-05-08 18:27 | 25.22500 | 46.21088 | 10027 ft | 363 kts | 111° |
| 2026-05-08 18:27 | 25.21952 | 46.22835 | 10031 ft | 364 kts | 111° |
| 2026-05-08 18:27 | 25.20843 | 46.26373 | 10019 ft | 366 kts | 111° |
| 2026-05-08 18:27 | 25.20010 | 46.29025 | 10017 ft | 366 kts | 111° |
| 2026-05-08 18:28 | 25.19175 | 46.31686 | 10016 ft | 366 kts | 111° |
| 2026-05-08 18:28 | 25.18340 | 46.34345 | 10009 ft | 366 kts | 111° |
| 2026-05-08 18:28 | 25.17517 | 46.36960 | 10000 ft | 365 kts | 111° |
| 2026-05-08 18:28 | 25.16684 | 46.39609 | 10003 ft | 365 kts | 111° |
| 2026-05-08 18:29 | 25.15693 | 46.42141 | 9999 ft | 356 kts | 126° |
| 2026-05-08 18:29 | 25.13999 | 46.44129 | 10025 ft | 358 kts | 146° |
| 2026-05-08 18:29 | 25.11854 | 46.45526 | 10023 ft | 357 kts | 153° |
| 2026-05-08 18:29 | 25.09681 | 46.46847 | 10023 ft | 356 kts | 152° |
| 2026-05-08 18:30 | 25.07528 | 46.48197 | 10014 ft | 355 kts | 151° |
| 2026-05-08 18:30 | 25.05414 | 46.49536 | 10001 ft | 342 kts | 151° |
| 2026-05-08 18:30 | 25.03403 | 46.50815 | 9999 ft | 326 kts | 151° |
| 2026-05-08 18:30 | 25.01495 | 46.52029 | 10002 ft | 309 kts | 151° |
| 2026-05-08 18:31 | 24.99681 | 46.53183 | 10004 ft | 292 kts | 151° |
| 2026-05-08 18:31 | 24.97955 | 46.54279 | 10009 ft | 285 kts | 151° |
| 2026-05-08 18:31 | 24.96226 | 46.55376 | 10023 ft | 287 kts | 151° |
| 2026-05-08 18:31 | 24.94497 | 46.56473 | 10020 ft | 286 kts | 152° |
| 2026-05-08 18:32 | 24.92779 | 46.57560 | 9800 ft | 284 kts | 151° |
| 2026-05-08 18:32 | 24.91102 | 46.58622 | 9533 ft | 279 kts | 151° |
| 2026-05-08 18:32 | 24.89427 | 46.59682 | 9134 ft | 277 kts | 150° |
| 2026-05-08 18:32 | 24.87752 | 46.60741 | 8671 ft | 278 kts | 150° |
| 2026-05-08 18:33 | 24.86078 | 46.61800 | 8228 ft | 278 kts | 150° |
| 2026-05-08 18:33 | 24.84394 | 46.62863 | 7844 ft | 277 kts | 150° |
| 2026-05-08 18:33 | 24.82742 | 46.63904 | 7554 ft | 272 kts | 150° |
| 2026-05-08 18:33 | 24.81097 | 46.64943 | 7201 ft | 271 kts | 149° |
| 2026-05-08 18:34 | 24.79468 | 46.65969 | 7064 ft | 271 kts | 149° |
| 2026-05-08 18:34 | 24.77822 | 46.67006 | 7016 ft | 275 kts | 149° |
| 2026-05-08 18:34 | 24.76163 | 46.68049 | 7017 ft | 273 kts | 149° |
| 2026-05-08 18:34 | 24.74533 | 46.69075 | 7005 ft | 272 kts | 149° |
| 2026-05-08 18:35 | 24.72882 | 46.70118 | 7005 ft | 276 kts | 148° |
| 2026-05-08 18:35 | 24.71200 | 46.71180 | 7013 ft | 281 kts | 148° |
| 2026-05-08 18:35 | 24.69501 | 46.72250 | 7009 ft | 281 kts | 148° |
| 2026-05-08 18:35 | 24.67810 | 46.73314 | 6992 ft | 279 kts | 149° |
| 2026-05-08 18:36 | 24.66129 | 46.74373 | 6986 ft | 278 kts | 149° |
| 2026-05-08 18:36 | 24.64451 | 46.75428 | 6983 ft | 277 kts | 149° |
| 2026-05-08 18:36 | 24.62784 | 46.76472 | 6980 ft | 276 kts | 149° |
| 2026-05-08 18:36 | 24.61117 | 46.77514 | 6977 ft | 275 kts | 149° |
| 2026-05-08 18:37 | 24.59446 | 46.78558 | 6973 ft | 275 kts | 149° |
| 2026-05-08 18:37 | 24.57783 | 46.79601 | 6983 ft | 275 kts | 149° |
| 2026-05-08 18:37 | 24.56119 | 46.80642 | 6982 ft | 276 kts | 149° |
| 2026-05-08 18:37 | 24.54446 | 46.81689 | 6972 ft | 277 kts | 148° |
| 2026-05-08 18:38 | 24.52797 | 46.82728 | 6974 ft | 277 kts | 148° |
| 2026-05-08 18:38 | 24.51119 | 46.83787 | 6977 ft | 278 kts | 148° |
| 2026-05-08 18:38 | 24.49441 | 46.84845 | 6984 ft | 278 kts | 148° |
| 2026-05-08 18:38 | 24.47785 | 46.85932 | 6970 ft | 274 kts | 141° |
| 2026-05-08 18:39 | 24.46594 | 46.87510 | 6973 ft | 270 kts | 112° |
| 2026-05-08 18:39 | 24.46212 | 46.89510 | 6985 ft | 269 kts | 89° |
| 2026-05-08 18:39 | 24.46523 | 46.91530 | 6978 ft | 271 kts | 69° |
| 2026-05-08 18:39 | 24.47403 | 46.93366 | 6983 ft | 272 kts | 60° |
| 2026-05-08 18:40 | 24.48638 | 46.94926 | 6968 ft | 275 kts | 35° |
| 2026-05-08 18:40 | 24.50422 | 46.95688 | 6983 ft | 281 kts | 8° |
| 2026-05-08 18:40 | 24.52380 | 46.95552 | 6977 ft | 284 kts | 345° |
| 2026-05-08 18:40 | 24.54120 | 46.94634 | 6977 ft | 273 kts | 330° |
| 2026-05-08 18:41 | 24.55735 | 46.93579 | 6966 ft | 268 kts | 332° |
| 2026-05-08 18:41 | 24.57356 | 46.92550 | 6972 ft | 270 kts | 332° |
| 2026-05-08 18:41 | 24.58996 | 46.91562 | 6972 ft | 268 kts | 334° |
| 2026-05-08 18:41 | 24.60626 | 46.90581 | 6970 ft | 267 kts | 332° |
| 2026-05-08 18:42 | 24.62244 | 46.89578 | 6974 ft | 266 kts | 332° |
| 2026-05-08 18:42 | 24.63827 | 46.88583 | 6979 ft | 266 kts | 332° |
| 2026-05-08 18:42 | 24.65429 | 46.87571 | 6980 ft | 266 kts | 331° |
| 2026-05-08 18:42 | 24.67053 | 46.86543 | 6988 ft | 266 kts | 332° |
| 2026-05-08 18:43 | 24.68637 | 46.85540 | 6982 ft | 258 kts | 332° |
| 2026-05-08 18:43 | 24.70146 | 46.84584 | 7036 ft | 252 kts | 332° |
| 2026-05-08 18:43 | 24.71711 | 46.83594 | 6750 ft | 258 kts | 332° |
| 2026-05-08 18:43 | 24.73234 | 46.82630 | 6465 ft | 253 kts | 332° |
| 2026-05-08 18:44 | 24.74748 | 46.81671 | 6150 ft | 247 kts | 332° |
| 2026-05-08 18:44 | 24.76219 | 46.80738 | 5840 ft | 241 kts | 333° |
| 2026-05-08 18:44 | 24.77656 | 46.79827 | 5540 ft | 235 kts | 333° |
| 2026-05-08 18:44 | 24.79053 | 46.78941 | 5240 ft | 229 kts | 334° |
| 2026-05-08 18:45 | 24.80421 | 46.78076 | 4955 ft | 223 kts | 332° |
| 2026-05-08 18:45 | 24.81736 | 46.77241 | 4704 ft | 211 kts | 333° |
| 2026-05-08 18:45 | 24.82997 | 46.76441 | 4464 ft | 212 kts | 333° |
| 2026-05-08 18:45 | 24.84258 | 46.75642 | 4161 ft | 205 kts | 334° |
| 2026-05-08 18:46 | 24.85455 | 46.74882 | 3896 ft | 191 kts | 334° |
| 2026-05-08 18:46 | 24.86550 | 46.74186 | 3670 ft | 176 kts | 334° |
| 2026-05-08 18:46 | 24.87587 | 46.73530 | 3472 ft | 171 kts | 333° |
| 2026-05-08 18:46 | 24.88590 | 46.72893 | 3265 ft | 161 kts | 334° |
| 2026-05-08 18:47 | 24.89546 | 46.72286 | 3079 ft | 158 kts | 333° |
| 2026-05-08 18:47 | 24.90489 | 46.71687 | 2876 ft | 156 kts | 334° |
| 2026-05-08 18:47 | 24.91448 | 46.71078 | 2681 ft | 162 kts | 332° |
| 2026-05-08 18:47 | 24.92428 | 46.70461 | 2467 ft | 163 kts | 332° |
| 2026-05-08 18:48 | 24.93400 | 46.69834 | 2237 ft | 161 kts | 332° |
| 2026-05-08 18:48 | 24.94352 | 46.69229 | 2047 ft | 156 kts | 327° |
| 2026-05-08 18:48 | 24.95194 | 46.68693 | 2043 ft | 115 kts | 330° |
| 2026-05-08 18:48 | 24.95731 | 46.68362 | 2041 ft | 62 kts | 338° |
| 2026-05-08 18:49 | 24.95982 | 46.68385 | 2039 ft | 30 kts | 40° |
| 2026-05-08 18:49 | 24.96063 | 46.68508 | 2040 ft | 0 kts | 61° |
| 2026-05-08 18:49 | 24.96067 | 46.68515 | 2040 ft | 2 kts | 60° |
| 2026-05-08 18:50 | 24.96078 | 46.68534 | 2039 ft | 4 kts | 58° |
| 2026-05-08 18:50 | 24.96095 | 46.68565 | 2041 ft | 5 kts | 58° |
| 2026-05-08 18:50 | 24.96129 | 46.68634 | 2043 ft | 17 kts | 61° |
| 2026-05-08 18:50 | 24.96206 | 46.68780 | 2041 ft | 26 kts | 60° |
| 2026-05-08 18:51 | 24.96296 | 46.68950 | 2043 ft | 26 kts | 60° |
| 2026-05-08 18:51 | 24.96385 | 46.69120 | 2042 ft | 26 kts | 60° |
| 2026-05-08 18:51 | 24.96475 | 46.69289 | 2041 ft | 26 kts | 59° |
| 2026-05-08 18:51 | 24.96564 | 46.69460 | 2040 ft | 26 kts | 60° |
| 2026-05-08 18:52 | 24.96653 | 46.69630 | 2041 ft | 26 kts | 59° |
| 2026-05-08 18:52 | 24.96743 | 46.69799 | 2041 ft | 26 kts | 60° |
| 2026-05-08 18:52 | 24.96822 | 46.69949 | 2041 ft | 18 kts | 60° |
| 2026-05-08 18:52 | 24.96911 | 46.70027 | 2041 ft | 18 kts | 351° |
| 2026-05-08 18:53 | 24.97023 | 46.69961 | 2042 ft | 18 kts | 330° |
| 2026-05-08 18:53 | 24.97134 | 46.69891 | 2042 ft | 18 kts | 330° |
| 2026-05-08 18:53 | 24.97245 | 46.69822 | 2041 ft | 18 kts | 329° |
| 2026-05-08 18:53 | 24.97283 | 46.69796 | 2042 ft | 0 kts | 330° |
| 2026-05-08 18:54 | 24.97284 | 46.69796 | 2042 ft | 0 kts | 330° |
| 2026-05-08 18:54 | 24.97314 | 46.69777 | 2040 ft | 9 kts | 330° |
| 2026-05-08 18:54 | 24.97366 | 46.69744 | 2041 ft | 9 kts | 331° |
| 2026-05-08 18:54 | 24.97422 | 46.69720 | 2038 ft | 9 kts | 339° |
| 2026-05-08 18:55 | 24.97405 | 46.69621 | 2042 ft | 2 kts | 239° |
| 2026-05-08 18:55 | 24.97400 | 46.69611 | 2042 ft | 2 kts | 239° |
| 2026-05-08 18:55 | 24.97399 | 46.69609 | 2041 ft | 0 kts | 239° |